createdAt,value
2023-05-09T00:00:18.559Z,2.47
2023-05-09T00:03:06.373Z,2.00
2023-05-09T00:05:53.486Z,2.57
2023-05-09T00:08:40.516Z,2.00
2023-05-09T00:11:27.564Z,2.30
2023-05-09T00:14:14.650Z,1.70
2023-05-09T00:17:01.687Z,2.13
2023-05-09T00:19:48.624Z,2.37
2023-05-09T00:22:36.742Z,2.40
2023-05-09T00:25:23.966Z,1.90
2023-05-09T00:28:11.230Z,2.10
2023-05-09T00:30:58.541Z,2.13
2023-05-09T00:33:48.277Z,2.03
2023-05-09T00:36:35.389Z,1.90
2023-05-09T00:39:22.392Z,2.10
2023-05-09T00:42:09.711Z,2.43
2023-05-09T00:44:56.764Z,2.03
2023-05-09T00:47:44.006Z,2.30
2023-05-09T00:50:31.278Z,2.20
2023-05-09T00:53:18.783Z,2.50
2023-05-09T00:56:06.168Z,2.07
2023-05-09T00:58:53.251Z,1.97
2023-05-09T01:01:40.247Z,2.20
2023-05-09T01:04:27.518Z,2.33
2023-05-09T01:07:23.455Z,2.03
2023-05-09T01:10:20.790Z,2.00
2023-05-09T01:13:26.063Z,2.40
2023-05-09T01:16:24.637Z,2.20
2023-05-09T01:20:05.313Z,2.30
2023-05-09T01:22:55.880Z,2.10
2023-05-09T01:25:57.963Z,2.10
2023-05-09T01:29:06.379Z,1.97
2023-05-09T01:31:58.190Z,2.10
2023-05-09T01:34:49.131Z,2.10
2023-05-09T01:37:38.768Z,2.33
2023-05-09T01:40:45.857Z,2.47
2023-05-09T01:43:38.321Z,2.47
2023-05-09T01:46:25.764Z,2.60
2023-05-09T01:49:14.689Z,2.40
2023-05-09T01:52:03.107Z,2.57
2023-05-09T01:54:51.449Z,2.13
2023-05-09T01:57:40.562Z,2.50
2023-05-09T02:00:29.501Z,2.10
2023-05-09T02:03:17.831Z,2.27
2023-05-09T02:06:06.507Z,2.47
2023-05-09T02:08:53.664Z,2.30
2023-05-09T02:11:40.762Z,2.33
2023-05-09T02:14:27.856Z,2.33
2023-05-09T02:17:15.109Z,1.93
2023-05-09T02:20:03.784Z,2.20
2023-05-09T02:23:11.032Z,1.93
2023-05-09T02:25:58.999Z,2.10
2023-05-09T02:28:48.152Z,2.33
2023-05-09T02:31:39.176Z,2.20
2023-05-09T02:34:27.183Z,2.37
2023-05-09T02:37:14.363Z,2.10
2023-05-09T02:40:01.718Z,2.30
2023-05-09T02:42:49.304Z,2.30
2023-05-09T02:45:36.651Z,2.70
2023-05-09T02:48:23.902Z,2.33
2023-05-09T02:51:11.130Z,2.10
2023-05-09T02:53:58.147Z,2.63
2023-05-09T02:56:45.464Z,2.30
2023-05-09T02:59:32.437Z,2.30
2023-05-09T03:02:22.496Z,2.70
2023-05-09T03:05:10.150Z,2.10
2023-05-09T03:07:57.601Z,2.30
2023-05-09T03:10:44.586Z,2.67
2023-05-09T03:13:31.752Z,2.13
2023-05-09T03:16:19.096Z,2.40
2023-05-09T03:19:06.247Z,2.20
2023-05-09T03:21:53.228Z,2.70
2023-05-09T03:24:40.395Z,2.30
2023-05-09T03:27:27.424Z,2.30
2023-05-09T03:30:14.966Z,2.37
2023-05-09T03:33:04.087Z,2.67
2023-05-09T03:35:51.283Z,2.40
2023-05-09T03:38:38.298Z,2.23
2023-05-09T03:41:25.569Z,2.17
2023-05-09T03:44:13.116Z,2.20
2023-05-09T03:47:00.680Z,2.47
2023-05-09T03:49:52.677Z,2.20
2023-05-09T03:52:42.614Z,2.40
2023-05-09T03:55:30.373Z,2.30
2023-05-09T03:58:18.357Z,2.40
2023-05-09T04:01:05.907Z,2.50
2023-05-09T04:03:53.157Z,2.73
2023-05-09T04:06:41.262Z,2.07
2023-05-09T04:09:30.167Z,2.20
2023-05-09T04:12:17.138Z,2.33
2023-05-09T04:15:05.142Z,2.37
2023-05-09T04:17:52.237Z,1.67
2023-05-09T04:20:39.455Z,2.27
2023-05-09T04:23:26.332Z,2.30
2023-05-09T04:26:15.088Z,2.20
2023-05-09T04:29:05.112Z,2.00
2023-05-09T04:31:52.862Z,2.17
2023-05-09T04:34:42.864Z,2.57
2023-05-09T04:37:36.300Z,2.17
2023-05-09T04:40:25.489Z,2.10
2023-05-09T04:43:18.126Z,2.30
2023-05-09T04:46:05.440Z,2.17
2023-05-09T04:48:54.720Z,3.20
2023-05-09T04:51:41.744Z,2.23
2023-05-09T04:54:28.982Z,2.17
2023-05-09T04:57:18.317Z,2.17
2023-05-09T05:00:12.106Z,2.83
2023-05-09T05:02:59.964Z,2.83
2023-05-09T05:05:48.776Z,2.77
2023-05-09T05:08:36.084Z,2.73
2023-05-09T05:11:23.234Z,2.50
2023-05-09T05:14:10.491Z,2.57
2023-05-09T05:16:57.718Z,2.30
2023-05-09T05:19:44.736Z,2.90
2023-05-09T05:22:33.515Z,2.67
2023-05-09T05:25:20.567Z,2.80
2023-05-09T05:28:09.652Z,2.20
2023-05-09T05:30:58.064Z,2.20
2023-05-09T05:33:45.306Z,2.47
2023-05-09T05:36:32.431Z,2.50
2023-05-09T05:39:19.906Z,2.70
2023-05-09T05:42:07.820Z,2.53
2023-05-09T05:44:55.416Z,2.17
2023-05-09T05:47:43.150Z,2.20
2023-05-09T05:50:31.353Z,2.90
2023-05-09T05:53:18.361Z,2.43
2023-05-09T05:56:06.342Z,2.80
2023-05-09T05:58:53.598Z,2.20
2023-05-09T06:01:41.325Z,2.43
2023-05-09T06:04:28.556Z,2.40
2023-05-09T06:07:15.944Z,2.50
2023-05-09T06:10:02.855Z,2.70
2023-05-09T06:12:50.135Z,2.50
2023-05-09T06:15:38.649Z,3.10
2023-05-09T06:18:25.948Z,3.43
2023-05-09T06:21:14.068Z,2.33
2023-05-09T06:24:07.829Z,3.07
2023-05-09T06:26:59.246Z,2.10
2023-05-09T06:29:46.695Z,2.40
2023-05-09T06:32:33.695Z,2.47
2023-05-09T06:35:20.850Z,2.50
2023-05-09T06:38:07.728Z,2.50
2023-05-09T06:40:56.080Z,2.10
2023-05-09T06:43:43.086Z,1.90
2023-05-09T06:46:30.525Z,1.93
2023-05-09T06:49:17.691Z,2.97
2023-05-09T06:52:05.097Z,2.03
2023-05-09T06:54:52.047Z,2.50
2023-05-09T06:57:39.095Z,2.30
2023-05-09T07:00:26.679Z,1.90
2023-05-09T07:03:13.884Z,2.30
2023-05-09T07:06:00.885Z,1.73
2023-05-09T07:08:48.268Z,2.30
2023-05-09T07:11:35.312Z,2.17
2023-05-09T07:14:23.147Z,2.57
2023-05-09T07:17:22.231Z,2.10
2023-05-09T07:20:11.423Z,2.40
2023-05-09T07:22:58.460Z,2.00
2023-05-09T07:25:45.633Z,2.07
2023-05-09T07:28:32.738Z,2.07
2023-05-09T07:31:20.349Z,2.23
2023-05-09T07:34:07.331Z,2.43
2023-05-09T07:36:54.492Z,1.93
2023-05-09T07:39:41.692Z,2.50
2023-05-09T07:42:28.795Z,2.60
2023-05-09T07:45:16.069Z,2.37
2023-05-09T07:48:04.406Z,2.13
2023-05-09T07:50:51.704Z,2.43
2023-05-09T07:53:38.893Z,2.30
2023-05-09T07:56:28.726Z,2.33
2023-05-09T07:59:15.799Z,2.53
2023-05-09T08:02:02.862Z,1.93
2023-05-09T08:04:50.009Z,2.40
2023-05-09T08:07:37.221Z,2.20
2023-05-09T08:10:25.350Z,2.33
2023-05-09T08:13:12.709Z,2.37
2023-05-09T08:16:00.228Z,2.27
2023-05-09T08:18:47.527Z,2.27
2023-05-09T08:21:34.782Z,2.53
2023-05-09T08:24:21.999Z,2.57
2023-05-09T08:27:09.232Z,2.50
2023-05-09T08:29:56.181Z,2.33
2023-05-09T08:32:43.226Z,2.20
2023-05-09T08:35:30.543Z,2.50
2023-05-09T08:38:17.677Z,2.00
2023-05-09T08:41:04.798Z,2.33
2023-05-09T08:43:54.001Z,2.53
2023-05-09T08:46:51.063Z,2.70
2023-05-09T08:49:39.120Z,3.00
2023-05-09T08:52:26.372Z,1.90
2023-05-09T08:55:13.704Z,2.50
2023-05-09T08:58:01.419Z,2.20
2023-05-09T09:00:50.160Z,2.50
2023-05-09T09:03:37.816Z,2.60
2023-05-09T09:06:27.736Z,2.50
2023-05-09T09:09:15.502Z,2.47
2023-05-09T09:12:03.819Z,2.20
2023-05-09T09:14:52.513Z,2.27
2023-05-09T09:17:42.160Z,1.90
2023-05-09T09:20:33.187Z,1.93
2023-05-09T09:23:23.623Z,2.30
2023-05-09T09:26:17.678Z,2.67
2023-05-09T09:29:04.727Z,2.47
2023-05-09T09:31:52.063Z,2.20
2023-05-09T09:34:43.372Z,2.40
2023-05-09T09:37:42.119Z,2.30
2023-05-09T09:40:31.219Z,2.80
2023-05-09T09:43:18.237Z,2.30
2023-05-09T09:46:10.163Z,2.50
2023-05-09T09:48:57.319Z,2.40
2023-05-09T09:51:47.463Z,2.40
2023-05-09T09:54:35.113Z,2.57
2023-05-09T09:57:22.320Z,2.40
2023-05-09T10:00:19.221Z,2.97
2023-05-09T10:03:17.080Z,2.47
2023-05-09T10:06:04.230Z,2.83
2023-05-09T10:08:51.412Z,2.43
2023-05-09T10:11:38.423Z,2.10
2023-05-09T10:14:25.853Z,2.17
2023-05-09T10:17:16.279Z,2.30
2023-05-09T10:20:05.930Z,2.13
2023-05-09T10:22:54.532Z,2.20
2023-05-09T10:25:47.987Z,2.23
2023-05-09T10:28:38.741Z,2.60
2023-05-09T10:31:48.640Z,1.87
2023-05-09T10:34:36.057Z,1.97
2023-05-09T10:37:23.825Z,2.10
2023-05-09T10:40:11.430Z,2.23
2023-05-09T10:42:58.593Z,2.00
2023-05-09T10:45:46.080Z,2.10
2023-05-09T10:48:33.825Z,2.40
2023-05-09T10:51:24.707Z,2.27
2023-05-09T10:54:12.007Z,2.50
2023-05-09T10:56:59.145Z,2.20
2023-05-09T10:59:58.521Z,2.17
2023-05-09T11:02:45.920Z,2.43
2023-05-09T11:05:35.205Z,2.37
2023-05-09T11:08:48.576Z,2.20
2023-05-09T11:11:43.813Z,2.10
2023-05-09T11:14:49.399Z,2.40
2023-05-09T11:17:42.583Z,1.93
2023-05-09T11:20:29.954Z,2.23
2023-05-09T11:23:17.596Z,2.30
2023-05-09T11:26:08.923Z,2.20
2023-05-09T11:28:58.579Z,2.00
2023-05-09T11:31:45.828Z,2.20
2023-05-09T11:34:32.960Z,2.10
2023-05-09T11:37:35.880Z,2.30
2023-05-09T11:40:23.417Z,2.30
2023-05-09T11:43:12.857Z,2.10
2023-05-09T11:46:01.449Z,2.57
2023-05-09T11:48:48.629Z,2.50
2023-05-09T11:51:39.538Z,2.17
2023-05-09T11:54:27.681Z,2.43
2023-05-09T11:57:14.813Z,2.03
2023-05-09T12:00:02.077Z,2.40
2023-05-09T12:02:50.206Z,2.30
2023-05-09T12:05:39.150Z,2.40
2023-05-09T12:08:27.207Z,2.80
2023-05-09T12:11:14.289Z,2.23
2023-05-09T12:14:09.648Z,2.03
2023-05-09T12:17:05.403Z,1.80
2023-05-09T12:19:52.816Z,2.30
2023-05-09T12:22:39.954Z,1.73
2023-05-09T12:25:29.259Z,2.23
2023-05-09T12:28:16.437Z,2.40
2023-05-09T12:31:04.989Z,2.37
2023-05-09T12:33:52.130Z,1.90
2023-05-09T12:36:39.257Z,2.03
2023-05-09T12:39:32.886Z,2.07
2023-05-09T12:42:20.006Z,2.10
2023-05-09T12:45:10.928Z,2.20
2023-05-09T12:47:58.923Z,2.13
2023-05-09T12:50:52.673Z,1.93
2023-05-09T12:53:47.316Z,2.10
2023-05-09T12:56:39.120Z,2.60
2023-05-09T12:59:31.042Z,2.00
2023-05-09T13:02:20.069Z,2.17
2023-05-09T13:05:07.282Z,2.33
2023-05-09T13:08:00.060Z,2.23
2023-05-09T13:10:47.955Z,2.53
2023-05-09T13:13:38.642Z,2.33
2023-05-09T13:16:26.352Z,2.30
2023-05-09T13:19:13.483Z,2.23
2023-05-09T13:22:01.313Z,2.30
2023-05-09T13:24:48.429Z,2.27
2023-05-09T13:27:35.550Z,2.13
2023-05-09T13:30:23.445Z,2.10
2023-05-09T13:33:24.688Z,2.30
2023-05-09T13:36:12.729Z,2.40
2023-05-09T13:39:00.117Z,2.53
2023-05-09T13:41:47.378Z,2.27
2023-05-09T13:44:34.846Z,3.13
2023-05-09T13:47:21.924Z,2.20
2023-05-09T13:50:09.360Z,2.03
2023-05-09T13:52:56.430Z,2.07
2023-05-09T13:55:43.671Z,2.40
2023-05-09T13:58:30.818Z,2.40
2023-05-09T14:01:18.147Z,2.47
2023-05-09T14:04:05.454Z,2.10
2023-05-09T14:06:52.574Z,2.33
2023-05-09T14:09:39.709Z,2.10
2023-05-09T14:12:27.250Z,2.20
2023-05-09T14:15:14.530Z,2.20
2023-05-09T14:18:01.614Z,2.27
2023-05-09T14:20:48.801Z,2.50
2023-05-09T14:23:35.989Z,2.47
2023-05-09T14:26:23.363Z,3.00
2023-05-09T14:29:10.406Z,2.67
2023-05-09T14:31:57.621Z,2.17
2023-05-09T14:34:44.848Z,2.47
2023-05-09T14:37:34.630Z,2.60
2023-05-09T14:40:21.843Z,2.27
2023-05-09T14:43:09.071Z,2.80
2023-05-09T14:45:56.266Z,2.83
2023-05-09T14:48:43.216Z,2.60
2023-05-09T14:51:30.404Z,2.40
2023-05-09T14:54:18.054Z,2.60
2023-05-09T14:57:05.213Z,2.50
2023-05-09T14:59:52.176Z,2.60
2023-05-09T15:02:39.623Z,2.80
2023-05-09T15:05:27.216Z,2.37
2023-05-09T15:08:14.470Z,2.40
2023-05-09T15:11:01.494Z,2.37
2023-05-09T15:13:48.591Z,2.40
2023-05-09T15:16:35.567Z,2.70
2023-05-09T15:19:22.665Z,2.57
2023-05-09T15:22:09.699Z,2.17
2023-05-09T15:24:56.932Z,2.60
2023-05-09T15:27:44.004Z,2.70
2023-05-09T15:30:31.633Z,2.60
2023-05-09T15:33:18.834Z,2.57
2023-05-09T15:35:54.875Z,2.43
2023-05-09T15:38:41.857Z,2.80
2023-05-09T15:41:28.823Z,2.30
2023-05-09T15:44:15.852Z,2.67
2023-05-09T15:47:02.866Z,2.83
2023-05-09T15:49:49.939Z,2.73
2023-05-09T15:52:37.116Z,2.73
2023-05-09T15:55:25.753Z,2.80
2023-05-09T15:58:13.985Z,2.60
2023-05-09T16:01:01.133Z,2.90
2023-05-09T16:03:48.348Z,2.80
2023-05-09T16:06:35.598Z,3.07
2023-05-09T16:09:23.063Z,3.00
2023-05-09T16:12:13.230Z,2.60
2023-05-09T16:15:00.316Z,2.50
2023-05-09T16:17:48.141Z,3.00
2023-05-09T16:20:35.472Z,2.70
2023-05-09T16:23:23.448Z,3.07
2023-05-09T16:26:10.584Z,2.57
2023-05-09T16:28:57.749Z,2.73
2023-05-09T16:31:47.815Z,2.77
2023-05-09T16:34:34.931Z,2.80
2023-05-09T16:37:22.901Z,2.57
2023-05-09T16:40:12.432Z,2.50
2023-05-09T16:42:59.587Z,2.47
2023-05-09T16:45:46.604Z,2.80
2023-05-09T16:48:34.871Z,2.60
2023-05-09T16:51:21.922Z,2.70
2023-05-09T16:54:09.148Z,2.33
2023-05-09T16:56:57.195Z,2.70
2023-05-09T16:59:44.609Z,2.60
2023-05-09T17:02:31.605Z,2.50
2023-05-09T17:05:18.942Z,2.77
2023-05-09T17:08:06.083Z,2.23
2023-05-09T17:10:53.448Z,2.80
2023-05-09T17:13:40.500Z,2.67
2023-05-09T17:16:27.688Z,2.40
2023-05-09T17:19:14.726Z,2.70
2023-05-09T17:22:01.996Z,2.63
2023-05-09T17:24:49.042Z,2.60
2023-05-09T17:27:39.128Z,2.40
2023-05-09T17:30:26.999Z,2.63
2023-05-09T17:33:14.238Z,2.50
2023-05-09T17:36:01.374Z,2.87
2023-05-09T17:38:48.423Z,2.90
2023-05-09T17:41:35.574Z,2.87
2023-05-09T17:44:22.507Z,2.50
2023-05-09T17:47:09.842Z,2.70
2023-05-09T17:49:57.023Z,2.23
2023-05-09T17:52:45.260Z,2.70
2023-05-09T17:55:32.493Z,2.57
2023-05-09T17:58:19.439Z,2.40
2023-05-09T18:01:06.466Z,2.77
2023-05-09T18:03:53.699Z,2.77
2023-05-09T18:06:40.990Z,2.33
2023-05-09T18:09:28.364Z,2.43
2023-05-09T18:12:15.476Z,2.50
2023-05-09T18:15:03.396Z,2.90
2023-05-09T18:17:51.532Z,2.50
2023-05-09T18:20:38.985Z,2.80
2023-05-09T18:23:25.989Z,3.03
2023-05-09T18:26:13.809Z,2.73
2023-05-09T18:29:00.804Z,2.87
2023-05-09T18:31:48.234Z,2.60
2023-05-09T18:34:35.373Z,3.17
2023-05-09T18:37:22.364Z,2.87
2023-05-09T18:40:09.473Z,2.77
2023-05-09T18:42:56.628Z,2.80
2023-05-09T18:45:44.144Z,3.13
2023-05-09T18:48:31.390Z,3.00
2023-05-09T18:51:18.717Z,3.77
2023-05-09T18:54:06.138Z,3.27
2023-05-09T18:56:53.297Z,2.87
2023-05-09T18:59:40.640Z,3.10
2023-05-09T19:02:27.701Z,2.97
2023-05-09T19:05:14.747Z,2.97
2023-05-09T19:08:01.765Z,3.47
2023-05-09T19:10:49.126Z,2.90
2023-05-09T19:13:36.239Z,3.23
2023-05-09T19:16:25.177Z,2.90
2023-05-09T19:19:16.619Z,2.93
2023-05-09T19:22:03.728Z,3.03
2023-05-09T19:24:52.338Z,3.40
2023-05-09T19:27:39.647Z,3.17
2023-05-09T19:30:27.283Z,3.50
2023-05-09T19:33:14.564Z,3.20
2023-05-09T19:36:02.176Z,2.90
2023-05-09T19:38:50.631Z,3.57
2023-05-09T19:41:37.788Z,3.20
2023-05-09T19:44:25.229Z,3.00
2023-05-09T19:47:12.136Z,3.43
2023-05-09T19:49:59.181Z,3.47
2023-05-09T19:52:46.101Z,3.07
2023-05-09T19:55:33.599Z,3.63
2023-05-09T19:58:21.773Z,3.37
2023-05-09T20:01:09.259Z,3.50
2023-05-09T20:04:00.824Z,3.50
2023-05-09T20:06:48.548Z,3.30
2023-05-09T20:09:36.053Z,3.40
2023-05-09T20:12:24.357Z,3.00
2023-05-09T20:15:11.402Z,3.30
2023-05-09T20:17:58.815Z,2.80
2023-05-09T20:20:45.990Z,3.00
2023-05-09T20:23:33.125Z,3.13
2023-05-09T20:26:20.220Z,3.47
2023-05-09T20:29:08.504Z,3.30
2023-05-09T20:31:55.575Z,3.57
2023-05-09T20:34:42.800Z,3.47
2023-05-09T20:37:29.864Z,3.30
2023-05-09T20:40:17.423Z,3.23
2023-05-09T20:43:04.803Z,3.50
2023-05-09T20:45:52.134Z,3.40
2023-05-09T20:48:39.181Z,3.30
2023-05-09T20:51:26.614Z,3.83
2023-05-09T20:54:13.715Z,3.43
2023-05-09T20:57:00.950Z,3.70
2023-05-09T20:59:28.323Z,3.40
2023-05-09T21:01:58.190Z,3.20
2023-05-09T21:04:25.682Z,3.50
2023-05-09T21:06:52.742Z,3.13
2023-05-09T21:09:19.946Z,3.00
2023-05-09T21:11:47.381Z,3.60
2023-05-09T21:14:14.520Z,2.93
2023-05-09T21:16:43.895Z,3.07
2023-05-09T21:19:11.301Z,3.13
2023-05-09T21:21:38.343Z,3.10
2023-05-09T21:24:09.218Z,3.00
2023-05-09T21:26:36.593Z,3.03
2023-05-09T21:29:03.706Z,2.90
2023-05-09T21:31:31.436Z,3.30
2023-05-09T21:33:59.618Z,3.40
2023-05-09T21:36:26.667Z,3.00
2023-05-09T21:38:53.747Z,3.20
2023-05-09T21:41:22.064Z,3.30
2023-05-09T21:43:49.120Z,2.53
2023-05-09T21:46:16.289Z,3.10
2023-05-09T21:48:43.432Z,2.87
2023-05-09T21:51:11.510Z,3.10
2023-05-09T21:53:38.576Z,3.27
2023-05-09T21:56:06.290Z,3.10
2023-05-09T21:58:33.301Z,3.07
2023-05-09T22:01:00.689Z,3.37
2023-05-09T22:03:27.911Z,2.97
2023-05-09T22:05:55.080Z,3.07
2023-05-09T22:08:23.133Z,3.30
2023-05-09T22:10:50.155Z,3.60
2023-05-09T22:13:17.309Z,2.83
2023-05-09T22:15:44.505Z,2.83
2023-05-09T22:18:11.696Z,3.00
2023-05-09T22:20:38.730Z,2.97
2023-05-09T22:23:05.695Z,2.90
2023-05-09T22:25:32.736Z,3.00
2023-05-09T22:27:59.780Z,2.83
2023-05-09T22:30:26.737Z,2.73
2023-05-09T22:32:53.777Z,2.93
2023-05-09T22:35:20.790Z,2.93
2023-05-09T22:37:47.688Z,3.30
2023-05-09T22:40:15.482Z,3.30
2023-05-09T22:42:42.800Z,3.20
2023-05-09T22:45:10.355Z,3.30
2023-05-09T22:47:37.631Z,2.67
2023-05-09T22:50:05.150Z,3.30
2023-05-09T22:52:32.112Z,3.00
2023-05-09T22:54:59.500Z,3.17
2023-05-09T22:57:26.672Z,3.00
2023-05-09T22:59:53.937Z,2.60
2023-05-09T23:02:21.372Z,3.20
2023-05-09T23:04:48.627Z,3.23
2023-05-09T23:07:15.992Z,2.67
2023-05-09T23:09:43.226Z,3.33
2023-05-09T23:12:10.775Z,2.73
2023-05-09T23:14:38.144Z,2.73
2023-05-09T23:17:05.360Z,3.07
2023-05-09T23:19:32.889Z,3.60
2023-05-09T23:22:00.176Z,3.27
2023-05-09T23:24:27.388Z,3.10
2023-05-09T23:26:54.309Z,2.80
2023-05-09T23:29:21.507Z,3.53
2023-05-09T23:31:48.753Z,2.70
2023-05-09T23:34:15.850Z,3.00
2023-05-09T23:36:42.971Z,3.00
2023-05-09T23:39:10.253Z,3.30
2023-05-09T23:41:44.483Z,2.67
2023-05-09T23:44:12.621Z,3.40
2023-05-09T23:46:39.678Z,2.87
2023-05-09T23:49:07.238Z,3.13
2023-05-09T23:51:34.458Z,2.83
2023-05-09T23:54:01.389Z,2.83
2023-05-09T23:56:28.443Z,3.00
2023-05-09T23:58:55.919Z,3.00
